sensor_id;sensor_type;location;lat;lon;timestamp;P1;durP1;ratioP1;P2;durP2;ratioP2
12892;SDS011;6514;48.606;9.222;2023-04-24T00:00:39;0.70;;;0.70;;
12892;SDS011;6514;48.606;9.222;2023-04-24T00:03:06;1.50;;;0.90;;
12892;SDS011;6514;48.606;9.222;2023-04-24T00:05:34;1.17;;;0.87;;
12892;SDS011;6514;48.606;9.222;2023-04-24T00:08:01;1.23;;;0.70;;
12892;SDS011;6514;48.606;9.222;2023-04-24T00:10:28;0.87;;;0.80;;
12892;SDS011;6514;48.606;9.222;2023-04-24T00:12:55;1.10;;;1.00;;
12892;SDS011;6514;48.606;9.222;2023-04-24T00:15:22;1.17;;;0.97;;
12892;SDS011;6514;48.606;9.222;2023-04-24T00:17:49;1.13;;;0.90;;
12892;SDS011;6514;48.606;9.222;2023-04-24T00:20:17;0.93;;;0.83;;
12892;SDS011;6514;48.606;9.222;2023-04-24T00:22:45;1.30;;;0.90;;
12892;SDS011;6514;48.606;9.222;2023-04-24T00:25:12;0.67;;;0.67;;
12892;SDS011;6514;48.606;9.222;2023-04-24T00:27:39;1.30;;;1.00;;
12892;SDS011;6514;48.606;9.222;2023-04-24T00:30:06;2.30;;;1.13;;
12892;SDS011;6514;48.606;9.222;2023-04-24T00:32:34;1.73;;;1.10;;
12892;SDS011;6514;48.606;9.222;2023-04-24T00:35:01;2.13;;;0.80;;
12892;SDS011;6514;48.606;9.222;2023-04-24T00:37:28;2.40;;;1.00;;
12892;SDS011;6514;48.606;9.222;2023-04-24T00:39:56;0.70;;;0.70;;
12892;SDS011;6514;48.606;9.222;2023-04-24T00:42:23;1.73;;;0.80;;
12892;SDS011;6514;48.606;9.222;2023-04-24T00:44:50;2.53;;;0.83;;
12892;SDS011;6514;48.606;9.222;2023-04-24T00:47:17;1.20;;;0.70;;
12892;SDS011;6514;48.606;9.222;2023-04-24T00:49:46;0.93;;;0.63;;
12892;SDS011;6514;48.606;9.222;2023-04-24T00:52:13;1.90;;;0.70;;
12892;SDS011;6514;48.606;9.222;2023-04-24T00:54:42;1.37;;;0.70;;
12892;SDS011;6514;48.606;9.222;2023-04-24T00:57:11;3.27;;;0.93;;
12892;SDS011;6514;48.606;9.222;2023-04-24T00:59:40;1.37;;;0.80;;
12892;SDS011;6514;48.606;9.222;2023-04-24T01:02:07;1.43;;;0.70;;
12892;SDS011;6514;48.606;9.222;2023-04-24T01:04:35;1.07;;;0.70;;
12892;SDS011;6514;48.606;9.222;2023-04-24T01:07:03;2.50;;;0.70;;
12892;SDS011;6514;48.606;9.222;2023-04-24T01:09:34;0.80;;;0.77;;
12892;SDS011;6514;48.606;9.222;2023-04-24T01:12:02;2.10;;;0.70;;
12892;SDS011;6514;48.606;9.222;2023-04-24T01:14:31;1.63;;;0.63;;
12892;SDS011;6514;48.606;9.222;2023-04-24T01:17:00;2.77;;;0.83;;
12892;SDS011;6514;48.606;9.222;2023-04-24T01:19:27;1.27;;;0.60;;
12892;SDS011;6514;48.606;9.222;2023-04-24T01:21:54;2.33;;;0.70;;
12892;SDS011;6514;48.606;9.222;2023-04-24T01:24:29;1.77;;;0.87;;
12892;SDS011;6514;48.606;9.222;2023-04-24T01:26:56;1.13;;;0.60;;
12892;SDS011;6514;48.606;9.222;2023-04-24T01:29:23;1.63;;;0.70;;
12892;SDS011;6514;48.606;9.222;2023-04-24T01:31:50;1.40;;;0.77;;
12892;SDS011;6514;48.606;9.222;2023-04-24T01:34:17;1.27;;;0.63;;
12892;SDS011;6514;48.606;9.222;2023-04-24T01:36:45;2.17;;;0.83;;
12892;SDS011;6514;48.606;9.222;2023-04-24T01:39:12;2.30;;;0.70;;
12892;SDS011;6514;48.606;9.222;2023-04-24T01:41:42;1.43;;;0.50;;
12892;SDS011;6514;48.606;9.222;2023-04-24T01:44:09;2.37;;;0.47;;
12892;SDS011;6514;48.606;9.222;2023-04-24T01:46:36;1.47;;;0.70;;
12892;SDS011;6514;48.606;9.222;2023-04-24T01:49:02;1.93;;;0.80;;
12892;SDS011;6514;48.606;9.222;2023-04-24T01:51:29;1.80;;;0.80;;
12892;SDS011;6514;48.606;9.222;2023-04-24T01:53:56;1.00;;;0.80;;
12892;SDS011;6514;48.606;9.222;2023-04-24T01:56:23;0.60;;;0.60;;
12892;SDS011;6514;48.606;9.222;2023-04-24T01:58:52;1.33;;;0.87;;
12892;SDS011;6514;48.606;9.222;2023-04-24T02:01:21;1.53;;;0.80;;
12892;SDS011;6514;48.606;9.222;2023-04-24T02:03:50;1.60;;;0.70;;
12892;SDS011;6514;48.606;9.222;2023-04-24T02:06:17;1.23;;;0.77;;
12892;SDS011;6514;48.606;9.222;2023-04-24T02:08:44;3.60;;;0.70;;
12892;SDS011;6514;48.606;9.222;2023-04-24T02:11:11;3.23;;;0.70;;
12892;SDS011;6514;48.606;9.222;2023-04-24T02:13:38;0.93;;;0.60;;
12892;SDS011;6514;48.606;9.222;2023-04-24T02:16:06;2.73;;;0.90;;
12892;SDS011;6514;48.606;9.222;2023-04-24T02:18:33;2.37;;;0.80;;
12892;SDS011;6514;48.606;9.222;2023-04-24T02:21:00;2.13;;;0.90;;
12892;SDS011;6514;48.606;9.222;2023-04-24T02:23:27;0.80;;;0.80;;
12892;SDS011;6514;48.606;9.222;2023-04-24T02:25:54;1.50;;;0.77;;
12892;SDS011;6514;48.606;9.222;2023-04-24T02:28:20;0.70;;;0.70;;
12892;SDS011;6514;48.606;9.222;2023-04-24T02:30:47;0.67;;;0.60;;
12892;SDS011;6514;48.606;9.222;2023-04-24T02:33:16;1.40;;;0.90;;
12892;SDS011;6514;48.606;9.222;2023-04-24T02:35:43;3.77;;;0.77;;
12892;SDS011;6514;48.606;9.222;2023-04-24T02:38:09;0.90;;;0.80;;
12892;SDS011;6514;48.606;9.222;2023-04-24T02:40:36;1.23;;;0.60;;
12892;SDS011;6514;48.606;9.222;2023-04-24T02:43:03;0.97;;;0.90;;
12892;SDS011;6514;48.606;9.222;2023-04-24T02:45:30;0.80;;;0.80;;
12892;SDS011;6514;48.606;9.222;2023-04-24T02:47:59;1.37;;;0.90;;
12892;SDS011;6514;48.606;9.222;2023-04-24T02:50:27;1.17;;;0.90;;
12892;SDS011;6514;48.606;9.222;2023-04-24T02:52:54;2.87;;;1.00;;
12892;SDS011;6514;48.606;9.222;2023-04-24T02:55:21;1.20;;;0.83;;
12892;SDS011;6514;48.606;9.222;2023-04-24T02:57:48;1.40;;;0.80;;
12892;SDS011;6514;48.606;9.222;2023-04-24T03:00:15;1.90;;;0.80;;
12892;SDS011;6514;48.606;9.222;2023-04-24T03:02:42;1.73;;;0.70;;
12892;SDS011;6514;48.606;9.222;2023-04-24T03:05:09;1.77;;;0.90;;
12892;SDS011;6514;48.606;9.222;2023-04-24T03:07:38;1.47;;;0.80;;
12892;SDS011;6514;48.606;9.222;2023-04-24T03:10:05;1.00;;;0.80;;
12892;SDS011;6514;48.606;9.222;2023-04-24T03:12:34;1.37;;;1.13;;
12892;SDS011;6514;48.606;9.222;2023-04-24T03:15:01;3.70;;;1.00;;
12892;SDS011;6514;48.606;9.222;2023-04-24T03:17:28;1.57;;;0.80;;
12892;SDS011;6514;48.606;9.222;2023-04-24T03:19:54;1.87;;;0.73;;
12892;SDS011;6514;48.606;9.222;2023-04-24T03:22:21;1.40;;;0.90;;
12892;SDS011;6514;48.606;9.222;2023-04-24T03:24:50;2.03;;;0.80;;
12892;SDS011;6514;48.606;9.222;2023-04-24T03:27:16;1.57;;;0.90;;
12892;SDS011;6514;48.606;9.222;2023-04-24T03:29:43;1.00;;;0.80;;
12892;SDS011;6514;48.606;9.222;2023-04-24T03:32:10;3.20;;;1.10;;
12892;SDS011;6514;48.606;9.222;2023-04-24T03:34:37;1.03;;;0.90;;
12892;SDS011;6514;48.606;9.222;2023-04-24T03:37:04;1.40;;;0.80;;
12892;SDS011;6514;48.606;9.222;2023-04-24T03:39:31;1.63;;;1.00;;
12892;SDS011;6514;48.606;9.222;2023-04-24T03:41:59;2.20;;;1.00;;
12892;SDS011;6514;48.606;9.222;2023-04-24T03:44:26;2.20;;;1.00;;
12892;SDS011;6514;48.606;9.222;2023-04-24T03:46:53;0.73;;;0.73;;
12892;SDS011;6514;48.606;9.222;2023-04-24T03:49:20;2.20;;;1.23;;
12892;SDS011;6514;48.606;9.222;2023-04-24T03:51:47;2.23;;;1.10;;
12892;SDS011;6514;48.606;9.222;2023-04-24T03:54:13;1.30;;;0.93;;
12892;SDS011;6514;48.606;9.222;2023-04-24T03:56:40;1.20;;;0.77;;
12892;SDS011;6514;48.606;9.222;2023-04-24T03:59:08;1.77;;;1.00;;
12892;SDS011;6514;48.606;9.222;2023-04-24T04:01:35;1.20;;;0.80;;
12892;SDS011;6514;48.606;9.222;2023-04-24T04:04:04;1.23;;;1.00;;
12892;SDS011;6514;48.606;9.222;2023-04-24T04:06:31;1.30;;;0.90;;
12892;SDS011;6514;48.606;9.222;2023-04-24T04:08:58;5.30;;;1.47;;
12892;SDS011;6514;48.606;9.222;2023-04-24T04:11:25;2.37;;;0.90;;
12892;SDS011;6514;48.606;9.222;2023-04-24T04:13:52;3.60;;;0.90;;
12892;SDS011;6514;48.606;9.222;2023-04-24T04:16:21;3.50;;;1.10;;
12892;SDS011;6514;48.606;9.222;2023-04-24T04:18:48;1.33;;;1.23;;
12892;SDS011;6514;48.606;9.222;2023-04-24T04:21:15;3.03;;;2.73;;
12892;SDS011;6514;48.606;9.222;2023-04-24T04:23:41;3.00;;;2.57;;
12892;SDS011;6514;48.606;9.222;2023-04-24T04:26:08;3.07;;;2.30;;
12892;SDS011;6514;48.606;9.222;2023-04-24T04:28:35;2.40;;;1.83;;
12892;SDS011;6514;48.606;9.222;2023-04-24T04:31:03;4.13;;;1.27;;
12892;SDS011;6514;48.606;9.222;2023-04-24T04:33:31;2.27;;;1.67;;
12892;SDS011;6514;48.606;9.222;2023-04-24T04:35:58;2.10;;;1.10;;
12892;SDS011;6514;48.606;9.222;2023-04-24T04:38:25;1.93;;;1.10;;
12892;SDS011;6514;48.606;9.222;2023-04-24T04:40:55;2.30;;;1.20;;
12892;SDS011;6514;48.606;9.222;2023-04-24T04:43:22;1.77;;;1.20;;
12892;SDS011;6514;48.606;9.222;2023-04-24T04:45:50;1.23;;;0.80;;
12892;SDS011;6514;48.606;9.222;2023-04-24T04:48:17;2.10;;;1.03;;
12892;SDS011;6514;48.606;9.222;2023-04-24T04:50:45;0.87;;;0.80;;
12892;SDS011;6514;48.606;9.222;2023-04-24T04:53:12;3.27;;;0.80;;
12892;SDS011;6514;48.606;9.222;2023-04-24T04:55:39;1.43;;;0.80;;
12892;SDS011;6514;48.606;9.222;2023-04-24T04:58:06;1.93;;;0.60;;
12892;SDS011;6514;48.606;9.222;2023-04-24T05:00:33;0.77;;;0.77;;
12892;SDS011;6514;48.606;9.222;2023-04-24T05:03:00;0.90;;;0.77;;
12892;SDS011;6514;48.606;9.222;2023-04-24T05:05:27;1.00;;;0.87;;
12892;SDS011;6514;48.606;9.222;2023-04-24T05:07:56;1.50;;;0.90;;
12892;SDS011;6514;48.606;9.222;2023-04-24T05:10:23;0.70;;;0.70;;
12892;SDS011;6514;48.606;9.222;2023-04-24T05:12:50;1.90;;;0.90;;
12892;SDS011;6514;48.606;9.222;2023-04-24T05:15:16;2.63;;;1.07;;
12892;SDS011;6514;48.606;9.222;2023-04-24T05:17:44;1.20;;;1.10;;
12892;SDS011;6514;48.606;9.222;2023-04-24T05:20:10;2.13;;;1.00;;
12892;SDS011;6514;48.606;9.222;2023-04-24T05:22:37;1.20;;;0.77;;
12892;SDS011;6514;48.606;9.222;2023-04-24T05:25:06;1.93;;;1.10;;
12892;SDS011;6514;48.606;9.222;2023-04-24T05:27:33;1.53;;;0.97;;
12892;SDS011;6514;48.606;9.222;2023-04-24T05:30:00;1.20;;;1.00;;
12892;SDS011;6514;48.606;9.222;2023-04-24T05:32:27;1.17;;;0.90;;
12892;SDS011;6514;48.606;9.222;2023-04-24T05:34:54;1.17;;;1.00;;
12892;SDS011;6514;48.606;9.222;2023-04-24T05:37:21;1.37;;;0.80;;
12892;SDS011;6514;48.606;9.222;2023-04-24T05:39:48;1.17;;;1.00;;
12892;SDS011;6514;48.606;9.222;2023-04-24T05:42:16;1.37;;;0.90;;
12892;SDS011;6514;48.606;9.222;2023-04-24T05:44:43;3.40;;;1.10;;
12892;SDS011;6514;48.606;9.222;2023-04-24T05:47:10;1.03;;;0.87;;
12892;SDS011;6514;48.606;9.222;2023-04-24T05:49:37;2.40;;;1.07;;
12892;SDS011;6514;48.606;9.222;2023-04-24T05:52:04;0.87;;;0.87;;
12892;SDS011;6514;48.606;9.222;2023-04-24T05:54:34;2.47;;;1.30;;
12892;SDS011;6514;48.606;9.222;2023-04-24T05:57:01;1.20;;;1.10;;
12892;SDS011;6514;48.606;9.222;2023-04-24T05:59:34;2.13;;;1.17;;
12892;SDS011;6514;48.606;9.222;2023-04-24T06:02:03;1.67;;;1.20;;
12892;SDS011;6514;48.606;9.222;2023-04-24T06:04:31;4.10;;;1.20;;
12892;SDS011;6514;48.606;9.222;2023-04-24T06:06:58;1.50;;;1.33;;
12892;SDS011;6514;48.606;9.222;2023-04-24T06:09:25;2.77;;;1.63;;
12892;SDS011;6514;48.606;9.222;2023-04-24T06:11:52;2.80;;;1.50;;
12892;SDS011;6514;48.606;9.222;2023-04-24T06:14:20;1.97;;;1.40;;
12892;SDS011;6514;48.606;9.222;2023-04-24T06:16:48;2.27;;;1.50;;
12892;SDS011;6514;48.606;9.222;2023-04-24T06:19:15;1.50;;;1.40;;
12892;SDS011;6514;48.606;9.222;2023-04-24T06:21:42;1.93;;;1.20;;
12892;SDS011;6514;48.606;9.222;2023-04-24T06:24:08;2.33;;;1.27;;
12892;SDS011;6514;48.606;9.222;2023-04-24T06:26:35;1.33;;;1.23;;
12892;SDS011;6514;48.606;9.222;2023-04-24T06:29:02;3.33;;;1.40;;
12892;SDS011;6514;48.606;9.222;2023-04-24T06:31:30;2.93;;;1.10;;
12892;SDS011;6514;48.606;9.222;2023-04-24T06:34:03;1.20;;;1.10;;
12892;SDS011;6514;48.606;9.222;2023-04-24T06:36:30;1.30;;;1.20;;
12892;SDS011;6514;48.606;9.222;2023-04-24T06:38:59;2.20;;;1.50;;
12892;SDS011;6514;48.606;9.222;2023-04-24T06:41:26;2.50;;;1.00;;
12892;SDS011;6514;48.606;9.222;2023-04-24T06:43:53;2.50;;;1.20;;
12892;SDS011;6514;48.606;9.222;2023-04-24T06:46:21;1.10;;;0.93;;
12892;SDS011;6514;48.606;9.222;2023-04-24T06:48:51;1.00;;;0.90;;
12892;SDS011;6514;48.606;9.222;2023-04-24T06:51:22;2.33;;;1.50;;
12892;SDS011;6514;48.606;9.222;2023-04-24T06:53:49;1.83;;;1.23;;
12892;SDS011;6514;48.606;9.222;2023-04-24T06:56:16;1.90;;;1.17;;
12892;SDS011;6514;48.606;9.222;2023-04-24T06:58:42;1.67;;;1.10;;
12892;SDS011;6514;48.606;9.222;2023-04-24T07:01:10;2.63;;;1.17;;
12892;SDS011;6514;48.606;9.222;2023-04-24T07:03:37;1.10;;;0.93;;
12892;SDS011;6514;48.606;9.222;2023-04-24T07:06:04;1.60;;;1.10;;
12892;SDS011;6514;48.606;9.222;2023-04-24T07:08:33;1.53;;;1.00;;
12892;SDS011;6514;48.606;9.222;2023-04-24T07:11:00;0.93;;;0.93;;
12892;SDS011;6514;48.606;9.222;2023-04-24T07:13:27;1.57;;;1.23;;
12892;SDS011;6514;48.606;9.222;2023-04-24T07:15:55;1.53;;;1.00;;
12892;SDS011;6514;48.606;9.222;2023-04-24T07:18:22;2.50;;;1.33;;
12892;SDS011;6514;48.606;9.222;2023-04-24T07:20:49;1.57;;;1.00;;
12892;SDS011;6514;48.606;9.222;2023-04-24T07:23:16;1.20;;;1.10;;
12892;SDS011;6514;48.606;9.222;2023-04-24T07:25:44;2.73;;;1.40;;
12892;SDS011;6514;48.606;9.222;2023-04-24T07:28:11;1.23;;;1.13;;
12892;SDS011;6514;48.606;9.222;2023-04-24T07:30:39;2.00;;;1.50;;
12892;SDS011;6514;48.606;9.222;2023-04-24T07:33:06;1.83;;;1.30;;
12892;SDS011;6514;48.606;9.222;2023-04-24T07:35:33;1.47;;;1.37;;
12892;SDS011;6514;48.606;9.222;2023-04-24T07:38:00;1.23;;;1.03;;
12892;SDS011;6514;48.606;9.222;2023-04-24T07:40:27;1.23;;;1.00;;
12892;SDS011;6514;48.606;9.222;2023-04-24T07:42:55;1.43;;;1.00;;
12892;SDS011;6514;48.606;9.222;2023-04-24T07:45:22;1.10;;;1.00;;
12892;SDS011;6514;48.606;9.222;2023-04-24T07:47:51;1.90;;;1.10;;
12892;SDS011;6514;48.606;9.222;2023-04-24T07:50:18;0.70;;;0.70;;
12892;SDS011;6514;48.606;9.222;2023-04-24T07:52:45;1.00;;;1.00;;
12892;SDS011;6514;48.606;9.222;2023-04-24T07:55:12;1.00;;;0.90;;
12892;SDS011;6514;48.606;9.222;2023-04-24T07:57:39;1.47;;;1.00;;
12892;SDS011;6514;48.606;9.222;2023-04-24T08:00:08;0.80;;;0.80;;
12892;SDS011;6514;48.606;9.222;2023-04-24T08:02:36;1.60;;;0.90;;
12892;SDS011;6514;48.606;9.222;2023-04-24T08:05:03;1.40;;;0.87;;
12892;SDS011;6514;48.606;9.222;2023-04-24T08:07:30;3.17;;;0.97;;
12892;SDS011;6514;48.606;9.222;2023-04-24T08:09:57;0.90;;;0.90;;
12892;SDS011;6514;48.606;9.222;2023-04-24T08:12:25;1.53;;;1.10;;
12892;SDS011;6514;48.606;9.222;2023-04-24T08:14:52;1.13;;;1.00;;
12892;SDS011;6514;48.606;9.222;2023-04-24T08:17:20;1.13;;;1.00;;
12892;SDS011;6514;48.606;9.222;2023-04-24T08:19:47;2.47;;;1.00;;
12892;SDS011;6514;48.606;9.222;2023-04-24T08:22:16;1.00;;;0.90;;
12892;SDS011;6514;48.606;9.222;2023-04-24T08:24:43;2.10;;;1.00;;
12892;SDS011;6514;48.606;9.222;2023-04-24T08:27:10;2.17;;;1.00;;
12892;SDS011;6514;48.606;9.222;2023-04-24T08:29:37;1.33;;;1.10;;
12892;SDS011;6514;48.606;9.222;2023-04-24T08:32:04;1.10;;;1.07;;
12892;SDS011;6514;48.606;9.222;2023-04-24T08:34:32;1.17;;;1.03;;
12892;SDS011;6514;48.606;9.222;2023-04-24T08:36:59;2.13;;;1.10;;
12892;SDS011;6514;48.606;9.222;2023-04-24T08:39:26;2.10;;;1.10;;
12892;SDS011;6514;48.606;9.222;2023-04-24T08:41:54;1.37;;;1.13;;
12892;SDS011;6514;48.606;9.222;2023-04-24T08:44:21;2.30;;;1.20;;
12892;SDS011;6514;48.606;9.222;2023-04-24T08:46:48;1.43;;;1.17;;
12892;SDS011;6514;48.606;9.222;2023-04-24T08:49:16;1.20;;;1.00;;
12892;SDS011;6514;48.606;9.222;2023-04-24T08:51:46;1.60;;;1.00;;
12892;SDS011;6514;48.606;9.222;2023-04-24T08:54:14;1.23;;;1.13;;
12892;SDS011;6514;48.606;9.222;2023-04-24T08:56:42;2.43;;;1.10;;
12892;SDS011;6514;48.606;9.222;2023-04-24T08:59:10;1.30;;;1.10;;
12892;SDS011;6514;48.606;9.222;2023-04-24T09:01:38;1.80;;;1.10;;
12892;SDS011;6514;48.606;9.222;2023-04-24T09:04:07;1.20;;;0.90;;
12892;SDS011;6514;48.606;9.222;2023-04-24T09:06:37;1.20;;;1.10;;
12892;SDS011;6514;48.606;9.222;2023-04-24T09:09:05;3.97;;;1.20;;
12892;SDS011;6514;48.606;9.222;2023-04-24T09:11:33;1.23;;;1.10;;
12892;SDS011;6514;48.606;9.222;2023-04-24T09:14:00;2.93;;;1.10;;
12892;SDS011;6514;48.606;9.222;2023-04-24T09:16:28;1.17;;;1.07;;
12892;SDS011;6514;48.606;9.222;2023-04-24T09:18:55;3.10;;;1.20;;
12892;SDS011;6514;48.606;9.222;2023-04-24T09:21:22;1.77;;;1.30;;
12892;SDS011;6514;48.606;9.222;2023-04-24T09:23:57;1.73;;;1.20;;
12892;SDS011;6514;48.606;9.222;2023-04-24T09:26:26;1.73;;;1.13;;
12892;SDS011;6514;48.606;9.222;2023-04-24T09:28:57;1.83;;;1.10;;
12892;SDS011;6514;48.606;9.222;2023-04-24T09:31:26;1.77;;;1.20;;
12892;SDS011;6514;48.606;9.222;2023-04-24T09:33:55;2.23;;;1.23;;
12892;SDS011;6514;48.606;9.222;2023-04-24T09:36:26;1.80;;;1.10;;
12892;SDS011;6514;48.606;9.222;2023-04-24T09:38:57;2.13;;;1.23;;
12892;SDS011;6514;48.606;9.222;2023-04-24T09:41:24;2.30;;;1.10;;
12892;SDS011;6514;48.606;9.222;2023-04-24T09:43:54;1.10;;;1.00;;
12892;SDS011;6514;48.606;9.222;2023-04-24T09:46:28;2.70;;;1.00;;
12892;SDS011;6514;48.606;9.222;2023-04-24T09:48:56;1.47;;;0.90;;
12892;SDS011;6514;48.606;9.222;2023-04-24T09:51:32;1.10;;;1.00;;
12892;SDS011;6514;48.606;9.222;2023-04-24T09:54:00;0.80;;;0.80;;
12892;SDS011;6514;48.606;9.222;2023-04-24T09:56:29;1.90;;;0.93;;
12892;SDS011;6514;48.606;9.222;2023-04-24T09:59:04;1.43;;;1.20;;
12892;SDS011;6514;48.606;9.222;2023-04-24T10:01:31;1.30;;;1.20;;
12892;SDS011;6514;48.606;9.222;2023-04-24T10:03:59;2.90;;;1.20;;
12892;SDS011;6514;48.606;9.222;2023-04-24T10:06:29;1.50;;;1.03;;
12892;SDS011;6514;48.606;9.222;2023-04-24T10:08:59;2.67;;;1.00;;
12892;SDS011;6514;48.606;9.222;2023-04-24T10:11:26;1.23;;;0.90;;
12892;SDS011;6514;48.606;9.222;2023-04-24T10:13:54;0.97;;;0.90;;
12892;SDS011;6514;48.606;9.222;2023-04-24T10:16:22;2.47;;;0.90;;
12892;SDS011;6514;48.606;9.222;2023-04-24T10:18:49;0.80;;;0.80;;
12892;SDS011;6514;48.606;9.222;2023-04-24T10:21:16;1.13;;;0.83;;
12892;SDS011;6514;48.606;9.222;2023-04-24T10:23:43;2.50;;;0.80;;
12892;SDS011;6514;48.606;9.222;2023-04-24T10:26:12;1.33;;;1.00;;
12892;SDS011;6514;48.606;9.222;2023-04-24T10:28:42;2.40;;;1.10;;
12892;SDS011;6514;48.606;9.222;2023-04-24T10:31:12;2.20;;;0.97;;
12892;SDS011;6514;48.606;9.222;2023-04-24T10:33:40;1.07;;;1.00;;
12892;SDS011;6514;48.606;9.222;2023-04-24T10:36:08;2.67;;;1.00;;
12892;SDS011;6514;48.606;9.222;2023-04-24T10:38:38;1.43;;;0.90;;
12892;SDS011;6514;48.606;9.222;2023-04-24T10:41:07;0.80;;;0.80;;
12892;SDS011;6514;48.606;9.222;2023-04-24T10:43:35;2.20;;;0.50;;
12892;SDS011;6514;48.606;9.222;2023-04-24T10:46:02;1.37;;;0.73;;
12892;SDS011;6514;48.606;9.222;2023-04-24T10:48:31;0.90;;;0.53;;
12892;SDS011;6514;48.606;9.222;2023-04-24T10:50:59;2.00;;;0.70;;
12892;SDS011;6514;48.606;9.222;2023-04-24T10:53:27;2.00;;;0.70;;
12892;SDS011;6514;48.606;9.222;2023-04-24T10:55:58;0.93;;;0.70;;
12892;SDS011;6514;48.606;9.222;2023-04-24T10:58:35;1.70;;;0.90;;
12892;SDS011;6514;48.606;9.222;2023-04-24T11:01:03;1.27;;;0.97;;
12892;SDS011;6514;48.606;9.222;2023-04-24T11:03:33;0.80;;;0.80;;
12892;SDS011;6514;48.606;9.222;2023-04-24T11:06:02;3.80;;;0.90;;
12892;SDS011;6514;48.606;9.222;2023-04-24T11:08:31;1.57;;;0.90;;
12892;SDS011;6514;48.606;9.222;2023-04-24T11:11:03;1.93;;;1.00;;
12892;SDS011;6514;48.606;9.222;2023-04-24T11:16:31;1.83;;;1.10;;
12892;SDS011;6514;48.606;9.222;2023-04-24T11:19:02;2.20;;;0.90;;
12892;SDS011;6514;48.606;9.222;2023-04-24T11:21:40;1.10;;;0.97;;
12892;SDS011;6514;48.606;9.222;2023-04-24T11:24:27;1.00;;;0.90;;
12892;SDS011;6514;48.606;9.222;2023-04-24T11:26:56;2.10;;;1.10;;
12892;SDS011;6514;48.606;9.222;2023-04-24T11:29:37;2.33;;;1.10;;
12892;SDS011;6514;48.606;9.222;2023-04-24T11:32:15;1.50;;;0.80;;
12892;SDS011;6514;48.606;9.222;2023-04-24T11:34:52;1.17;;;0.80;;
12892;SDS011;6514;48.606;9.222;2023-04-24T11:37:20;0.80;;;0.80;;
12892;SDS011;6514;48.606;9.222;2023-04-24T11:39:49;1.10;;;1.00;;
12892;SDS011;6514;48.606;9.222;2023-04-24T11:42:17;1.10;;;1.00;;
12892;SDS011;6514;48.606;9.222;2023-04-24T11:44:46;1.47;;;1.10;;
12892;SDS011;6514;48.606;9.222;2023-04-24T11:47:13;1.90;;;0.60;;
12892;SDS011;6514;48.606;9.222;2023-04-24T11:49:40;0.90;;;0.90;;
12892;SDS011;6514;48.606;9.222;2023-04-24T11:52:09;1.37;;;0.80;;
12892;SDS011;6514;48.606;9.222;2023-04-24T11:54:36;0.67;;;0.60;;
12892;SDS011;6514;48.606;9.222;2023-04-24T11:57:03;0.80;;;0.70;;
12892;SDS011;6514;48.606;9.222;2023-04-24T11:59:35;0.70;;;0.70;;
12892;SDS011;6514;48.606;9.222;2023-04-24T12:02:02;0.60;;;0.60;;
12892;SDS011;6514;48.606;9.222;2023-04-24T12:04:37;1.10;;;0.77;;
12892;SDS011;6514;48.606;9.222;2023-04-24T12:07:05;0.80;;;0.77;;
12892;SDS011;6514;48.606;9.222;2023-04-24T12:09:44;1.93;;;1.70;;
12892;SDS011;6514;48.606;9.222;2023-04-24T12:12:12;1.40;;;0.90;;
12892;SDS011;6514;48.606;9.222;2023-04-24T12:17:26;1.93;;;1.40;;
12892;SDS011;6514;48.606;9.222;2023-04-24T12:19:56;1.50;;;1.17;;
12892;SDS011;6514;48.606;9.222;2023-04-24T12:22:25;1.60;;;1.20;;
12892;SDS011;6514;48.606;9.222;2023-04-24T12:24:57;1.23;;;1.13;;
12892;SDS011;6514;48.606;9.222;2023-04-24T12:27:25;1.27;;;1.17;;
12892;SDS011;6514;48.606;9.222;2023-04-24T12:29:53;1.70;;;1.00;;
12892;SDS011;6514;48.606;9.222;2023-04-24T12:32:21;1.17;;;1.07;;
12892;SDS011;6514;48.606;9.222;2023-04-24T12:34:49;1.07;;;1.00;;
12892;SDS011;6514;48.606;9.222;2023-04-24T12:37:16;2.03;;;1.00;;
12892;SDS011;6514;48.606;9.222;2023-04-24T12:42:31;2.40;;;0.90;;
12892;SDS011;6514;48.606;9.222;2023-04-24T12:44:59;1.23;;;1.00;;
12892;SDS011;6514;48.606;9.222;2023-04-24T12:47:28;1.40;;;0.90;;
12892;SDS011;6514;48.606;9.222;2023-04-24T12:49:56;0.97;;;0.87;;
12892;SDS011;6514;48.606;9.222;2023-04-24T12:52:23;1.43;;;0.90;;
12892;SDS011;6514;48.606;9.222;2023-04-24T12:54:52;1.10;;;1.00;;
12892;SDS011;6514;48.606;9.222;2023-04-24T12:57:22;1.27;;;0.87;;
12892;SDS011;6514;48.606;9.222;2023-04-24T12:59:49;1.50;;;1.23;;
12892;SDS011;6514;48.606;9.222;2023-04-24T13:02:16;1.20;;;1.10;;
12892;SDS011;6514;48.606;9.222;2023-04-24T13:04:43;1.13;;;1.03;;
12892;SDS011;6514;48.606;9.222;2023-04-24T13:07:11;1.60;;;1.03;;
12892;SDS011;6514;48.606;9.222;2023-04-24T13:09:39;1.07;;;0.97;;
12892;SDS011;6514;48.606;9.222;2023-04-24T13:12:06;4.00;;;1.17;;
12892;SDS011;6514;48.606;9.222;2023-04-24T13:14:34;1.63;;;1.10;;
12892;SDS011;6514;48.606;9.222;2023-04-24T13:17:02;1.20;;;1.10;;
12892;SDS011;6514;48.606;9.222;2023-04-24T13:19:29;1.77;;;1.10;;
12892;SDS011;6514;48.606;9.222;2023-04-24T13:21:56;1.20;;;1.10;;
12892;SDS011;6514;48.606;9.222;2023-04-24T13:24:24;2.83;;;1.50;;
12892;SDS011;6514;48.606;9.222;2023-04-24T13:26:51;1.67;;;1.13;;
12892;SDS011;6514;48.606;9.222;2023-04-24T13:29:18;1.43;;;1.20;;
12892;SDS011;6514;48.606;9.222;2023-04-24T13:31:47;1.10;;;1.00;;
12892;SDS011;6514;48.606;9.222;2023-04-24T13:34:15;1.30;;;1.20;;
12892;SDS011;6514;48.606;9.222;2023-04-24T13:36:42;2.40;;;1.10;;
12892;SDS011;6514;48.606;9.222;2023-04-24T13:39:09;1.40;;;1.30;;
12892;SDS011;6514;48.606;9.222;2023-04-24T13:41:36;1.33;;;1.23;;
12892;SDS011;6514;48.606;9.222;2023-04-24T13:44:03;1.47;;;1.20;;
12892;SDS011;6514;48.606;9.222;2023-04-24T13:46:31;1.50;;;1.40;;
12892;SDS011;6514;48.606;9.222;2023-04-24T13:48:59;1.10;;;1.00;;
12892;SDS011;6514;48.606;9.222;2023-04-24T13:51:26;1.50;;;1.40;;
12892;SDS011;6514;48.606;9.222;2023-04-24T13:53:53;2.83;;;1.30;;
12892;SDS011;6514;48.606;9.222;2023-04-24T13:56:21;1.60;;;1.50;;
12892;SDS011;6514;48.606;9.222;2023-04-24T13:58:48;2.10;;;1.57;;
12892;SDS011;6514;48.606;9.222;2023-04-24T14:01:15;2.27;;;1.47;;
12892;SDS011;6514;48.606;9.222;2023-04-24T14:03:42;2.63;;;2.00;;
12892;SDS011;6514;48.606;9.222;2023-04-24T14:06:10;2.07;;;1.13;;
12892;SDS011;6514;48.606;9.222;2023-04-24T14:08:37;3.00;;;1.33;;
12892;SDS011;6514;48.606;9.222;2023-04-24T14:11:04;2.73;;;2.53;;
12892;SDS011;6514;48.606;9.222;2023-04-24T14:13:31;2.47;;;1.87;;
12892;SDS011;6514;48.606;9.222;2023-04-24T14:15:58;2.27;;;1.30;;
12892;SDS011;6514;48.606;9.222;2023-04-24T14:18:25;2.60;;;1.80;;
12892;SDS011;6514;48.606;9.222;2023-04-24T14:20:52;1.57;;;1.47;;
12892;SDS011;6514;48.606;9.222;2023-04-24T14:23:21;1.27;;;1.13;;
12892;SDS011;6514;48.606;9.222;2023-04-24T14:25:47;1.60;;;1.40;;
12892;SDS011;6514;48.606;9.222;2023-04-24T14:28:17;1.20;;;1.10;;
12892;SDS011;6514;48.606;9.222;2023-04-24T14:30:44;1.40;;;1.10;;
12892;SDS011;6514;48.606;9.222;2023-04-24T14:33:10;2.27;;;1.30;;
12892;SDS011;6514;48.606;9.222;2023-04-24T14:35:38;1.57;;;1.40;;
12892;SDS011;6514;48.606;9.222;2023-04-24T14:38:05;2.00;;;1.10;;
12892;SDS011;6514;48.606;9.222;2023-04-24T14:40:33;1.37;;;1.27;;
12892;SDS011;6514;48.606;9.222;2023-04-24T14:43:00;2.67;;;1.10;;
12892;SDS011;6514;48.606;9.222;2023-04-24T14:45:27;2.70;;;1.17;;
12892;SDS011;6514;48.606;9.222;2023-04-24T14:47:55;1.63;;;1.53;;
12892;SDS011;6514;48.606;9.222;2023-04-24T14:50:22;1.30;;;1.20;;
12892;SDS011;6514;48.606;9.222;2023-04-24T14:52:52;1.67;;;1.57;;
12892;SDS011;6514;48.606;9.222;2023-04-24T14:55:19;1.30;;;1.20;;
12892;SDS011;6514;48.606;9.222;2023-04-24T14:57:47;2.67;;;1.50;;
12892;SDS011;6514;48.606;9.222;2023-04-24T15:00:15;1.90;;;1.30;;
12892;SDS011;6514;48.606;9.222;2023-04-24T15:02:42;2.07;;;1.13;;
12892;SDS011;6514;48.606;9.222;2023-04-24T15:05:09;2.17;;;1.27;;
12892;SDS011;6514;48.606;9.222;2023-04-24T15:07:36;1.07;;;1.00;;
12892;SDS011;6514;48.606;9.222;2023-04-24T15:10:04;1.43;;;1.33;;
12892;SDS011;6514;48.606;9.222;2023-04-24T15:12:31;1.40;;;1.30;;